Sherburn in Elmet, United Kingdom
Current Conditions -  °F | °C
As of 5:50 PM on Friday 28 Nov 2014 (Local Time) from EGNM Reporting Station
Light Rain Light Rain  
Wind Chill: 41°   Ceiling: 200
Heat Index: 46°   Visibility: 0.43mi
Dew Point: 46°   Wind: 10mph
Humidity: 100%   Direction: 90°E
Pressure: 29.77"   Gusts: NA
Location:  53.8°N, 1.25°W
Report Text: EGNM 281750Z 09009KT 050V140 0700 R32/P1500 -RADZ FG SCT001 BKN002 08/08 Q1008
Loading
Personal Weather Stations






























Interactive Weather Map New forecast layout! Learn more

10-Day Weather Forecast

Advertisements
Track Severe Weather on mobile